createdAt,value
2023-05-06T00:00:52.576Z,94689.00
2023-05-06T00:01:52.587Z,94687.00
2023-05-06T00:02:52.700Z,94689.00
2023-05-06T00:03:52.738Z,94691.00
2023-05-06T00:04:52.691Z,94691.00
2023-05-06T00:05:52.633Z,94687.00
2023-05-06T00:06:52.658Z,94689.00
2023-05-06T00:07:52.643Z,94689.00
2023-05-06T00:08:52.659Z,94687.00
2023-05-06T00:09:52.679Z,94685.00
2023-05-06T00:10:52.712Z,94683.00
2023-05-06T00:11:52.694Z,94681.00
2023-05-06T00:12:52.753Z,94683.00
2023-05-06T00:13:52.725Z,94681.00
2023-05-06T00:14:52.754Z,94677.00
2023-05-06T00:15:52.805Z,94677.00
2023-05-06T00:16:52.774Z,94675.00
2023-05-06T00:17:52.806Z,94675.00
2023-05-06T00:18:52.801Z,94673.00
2023-05-06T00:19:52.801Z,94673.00
2023-05-06T00:20:52.825Z,94675.00
2023-05-06T00:21:52.830Z,94675.00
2023-05-06T00:22:52.853Z,94675.00
2023-05-06T00:23:52.866Z,94677.00
2023-05-06T00:24:52.869Z,94677.00
2023-05-06T00:25:52.943Z,94675.00
2023-05-06T00:26:52.905Z,94677.00
2023-05-06T00:27:52.912Z,94675.00
2023-05-06T00:28:52.921Z,94679.00
2023-05-06T00:29:52.946Z,94679.00
2023-05-06T00:30:52.988Z,94679.00
2023-05-06T00:31:52.995Z,94681.00
2023-05-06T00:32:53.037Z,94679.00
2023-05-06T00:33:53.018Z,94679.00
2023-05-06T00:34:53.044Z,94677.00
2023-05-06T00:35:53.063Z,94679.00
2023-05-06T00:36:53.073Z,94679.00
2023-05-06T00:37:53.108Z,94677.00
2023-05-06T00:38:53.121Z,94673.00
2023-05-06T00:39:53.165Z,94673.00
2023-05-06T00:40:53.154Z,94671.00
2023-05-06T00:41:53.233Z,94671.00
2023-05-06T00:42:53.207Z,94669.00
2023-05-06T00:43:53.218Z,94667.00
2023-05-06T00:44:53.264Z,94665.00
2023-05-06T00:45:53.330Z,94667.00
2023-05-06T00:46:53.273Z,94665.00
2023-05-06T00:47:53.344Z,94663.00
2023-05-06T00:48:53.319Z,94662.00
2023-05-06T00:49:53.322Z,94662.00
2023-05-06T00:50:53.359Z,94663.00
2023-05-06T00:51:53.374Z,94665.00
2023-05-06T00:52:53.394Z,94662.00
2023-05-06T00:53:53.415Z,94663.00
2023-05-06T00:54:53.438Z,94663.00
2023-05-06T00:55:53.446Z,94660.00
2023-05-06T00:56:53.480Z,94660.00
2023-05-06T00:57:53.549Z,94658.00
2023-05-06T00:58:53.528Z,94658.00
2023-05-06T00:59:53.594Z,94660.00
2023-05-06T01:00:53.621Z,94658.00
2023-05-06T01:01:53.610Z,94658.00
2023-05-06T01:02:53.690Z,94658.00
2023-05-06T01:03:53.861Z,94658.00
2023-05-06T01:04:53.695Z,94654.00
2023-05-06T01:05:53.671Z,94654.00
2023-05-06T01:06:53.685Z,94654.00
2023-05-06T01:07:53.731Z,94648.00
2023-05-06T01:08:53.741Z,94652.00
2023-05-06T01:09:53.767Z,94650.00
2023-05-06T01:10:53.791Z,94652.00
2023-05-06T01:11:53.792Z,94654.00
2023-05-06T01:12:53.869Z,94654.00
2023-05-06T01:13:53.901Z,94654.00
2023-05-06T01:14:53.867Z,94654.00
2023-05-06T01:15:53.935Z,94654.00
2023-05-06T01:16:53.964Z,94652.00
2023-05-06T01:17:54.104Z,94656.00
2023-05-06T01:18:53.944Z,94654.00
2023-05-06T01:19:53.992Z,94652.00
2023-05-06T01:20:54.033Z,94654.00
2023-05-06T01:21:53.997Z,94654.00
2023-05-06T01:22:54.063Z,94654.00
2023-05-06T01:23:54.050Z,94652.00
2023-05-06T01:24:54.093Z,94654.00
2023-05-06T01:25:54.096Z,94650.00
2023-05-06T01:26:54.116Z,94654.00
2023-05-06T01:27:54.122Z,94650.00
2023-05-06T01:28:54.153Z,94652.00
2023-05-06T01:29:54.225Z,94652.00
2023-05-06T01:30:54.232Z,94654.00
2023-05-06T01:31:54.238Z,94654.00
2023-05-06T01:32:54.298Z,94656.00
2023-05-06T01:33:54.283Z,94658.00
2023-05-06T01:34:54.280Z,94656.00
2023-05-06T01:35:54.339Z,94656.00
2023-05-06T01:36:54.327Z,94652.00
2023-05-06T01:37:54.370Z,94652.00
2023-05-06T01:38:54.387Z,94648.00
2023-05-06T01:39:54.394Z,94648.00
2023-05-06T01:40:54.411Z,94646.00
2023-05-06T01:41:54.436Z,94650.00
2023-05-06T01:42:54.468Z,94652.00
2023-05-06T01:43:54.489Z,94648.00
2023-05-06T01:44:54.528Z,94650.00
2023-05-06T01:45:54.588Z,94650.00
2023-05-06T01:46:54.568Z,94648.00
2023-05-06T01:47:54.704Z,94648.00
2023-05-06T01:48:54.613Z,94650.00
2023-05-06T01:49:54.648Z,94644.00
2023-05-06T01:50:54.675Z,94646.00
2023-05-06T01:51:54.699Z,94644.00
2023-05-06T01:52:54.739Z,94644.00
2023-05-06T01:53:54.775Z,94644.00
2023-05-06T01:54:54.806Z,94642.00
2023-05-06T01:55:54.841Z,94644.00
2023-05-06T01:56:54.861Z,94644.00
2023-05-06T01:57:54.876Z,94644.00
2023-05-06T01:58:54.903Z,94640.00
2023-05-06T01:59:54.998Z,94640.00
2023-05-06T02:00:54.979Z,94640.00
2023-05-06T02:01:55.101Z,94642.00
2023-05-06T02:02:55.143Z,94642.00
2023-05-06T02:03:55.157Z,94642.00
2023-05-06T02:04:55.105Z,94640.00
2023-05-06T02:05:55.127Z,94642.00
2023-05-06T02:06:55.141Z,94640.00
2023-05-06T02:07:55.212Z,94640.00
2023-05-06T02:08:55.210Z,94642.00
2023-05-06T02:09:55.276Z,94642.00
2023-05-06T02:10:55.268Z,94640.00
2023-05-06T02:11:55.317Z,94642.00
2023-05-06T02:12:55.410Z,94642.00
2023-05-06T02:13:55.360Z,94642.00
2023-05-06T02:14:55.438Z,94642.00
2023-05-06T02:15:55.461Z,94642.00
2023-05-06T02:16:55.449Z,94640.00
2023-05-06T02:17:55.594Z,94640.00
2023-05-06T02:18:55.522Z,94636.00
2023-05-06T02:19:55.608Z,94640.00
2023-05-06T02:20:55.576Z,94642.00
2023-05-06T02:21:55.619Z,94642.00
2023-05-06T02:22:55.664Z,94640.00
2023-05-06T02:23:55.669Z,94642.00
2023-05-06T02:24:55.718Z,94642.00
2023-05-06T02:25:55.719Z,94638.00
2023-05-06T02:26:55.741Z,94636.00
2023-05-06T02:27:55.774Z,94636.00
2023-05-06T02:28:55.861Z,94632.00
2023-05-06T02:29:55.865Z,94634.00
2023-05-06T02:30:55.873Z,94632.00
2023-05-06T02:31:56.012Z,94632.00
2023-05-06T02:32:55.965Z,94634.00
2023-05-06T02:33:56.006Z,94634.00
2023-05-06T02:34:56.003Z,94636.00
2023-05-06T02:35:56.012Z,94636.00
2023-05-06T02:36:56.042Z,94636.00
2023-05-06T02:37:56.097Z,94638.00
2023-05-06T02:38:56.111Z,94636.00
2023-05-06T02:39:56.146Z,94636.00
2023-05-06T02:40:56.173Z,94634.00
2023-05-06T02:41:56.234Z,94632.00
2023-05-06T02:42:56.349Z,94634.00
2023-05-06T02:43:56.293Z,94624.00
2023-05-06T02:44:56.346Z,94624.00
2023-05-06T02:45:56.368Z,94624.00
2023-05-06T02:46:56.372Z,94624.00
2023-05-06T02:47:56.521Z,94624.00
2023-05-06T02:48:56.463Z,94620.00
2023-05-06T02:49:56.486Z,94624.00
2023-05-06T02:50:56.514Z,94618.00
2023-05-06T02:51:56.564Z,94622.00
2023-05-06T02:52:56.616Z,94617.00
2023-05-06T02:53:56.666Z,94617.00
2023-05-06T02:54:56.657Z,94617.00
2023-05-06T02:55:56.712Z,94617.00
2023-05-06T02:56:56.749Z,94615.00
2023-05-06T02:57:56.785Z,94617.00
2023-05-06T02:58:56.814Z,94615.00
2023-05-06T02:59:56.869Z,94615.00
2023-05-06T03:00:56.905Z,94615.00
2023-05-06T03:01:56.932Z,94615.00
2023-05-06T03:02:56.998Z,94615.00
2023-05-06T03:03:57.006Z,94613.00
2023-05-06T03:04:57.043Z,94613.00
2023-05-06T03:05:57.126Z,94615.00
2023-05-06T03:06:57.107Z,94613.00
2023-05-06T03:07:57.167Z,94613.00
2023-05-06T03:08:57.168Z,94613.00
2023-05-06T03:09:57.204Z,94611.00
2023-05-06T03:10:57.237Z,94607.00
2023-05-06T03:11:57.274Z,94605.00
2023-05-06T03:12:57.371Z,94601.00
2023-05-06T03:13:57.359Z,94599.00
2023-05-06T03:14:57.415Z,94597.00
2023-05-06T03:15:57.437Z,94599.00
2023-05-06T03:16:57.553Z,94597.00
2023-05-06T03:17:57.554Z,94601.00
2023-05-06T03:18:57.542Z,94601.00
2023-05-06T03:19:57.609Z,94603.00
2023-05-06T03:20:57.637Z,94605.00
2023-05-06T03:21:57.727Z,94607.00
2023-05-06T03:22:57.704Z,94603.00
2023-05-06T03:23:57.726Z,94601.00
2023-05-06T03:24:57.787Z,94601.00
2023-05-06T03:25:57.790Z,94599.00
2023-05-06T03:26:57.843Z,94597.00
2023-05-06T03:27:58.122Z,94595.00
2023-05-06T03:28:57.898Z,94595.00
2023-05-06T03:29:57.954Z,94599.00
2023-05-06T03:30:57.977Z,94595.00
2023-05-06T03:31:58.073Z,94595.00
2023-05-06T03:32:58.121Z,94595.00
2023-05-06T03:33:58.099Z,94599.00
2023-05-06T03:34:58.187Z,94597.00
2023-05-06T03:35:58.175Z,94597.00
2023-05-06T03:36:58.197Z,94599.00
2023-05-06T03:37:58.249Z,94601.00
2023-05-06T03:38:58.267Z,94603.00
2023-05-06T03:39:58.324Z,94605.00
2023-05-06T03:40:58.337Z,94607.00
2023-05-06T03:41:58.404Z,94607.00
2023-05-06T03:42:58.412Z,94609.00
2023-05-06T03:43:58.442Z,94611.00
2023-05-06T03:44:58.479Z,94613.00
2023-05-06T03:45:58.568Z,94615.00
2023-05-06T03:46:58.550Z,94617.00
2023-05-06T03:47:58.751Z,94618.00
2023-05-06T03:48:58.641Z,94618.00
2023-05-06T03:49:58.700Z,94624.00
2023-05-06T03:50:58.712Z,94632.00
2023-05-06T03:51:58.738Z,94632.00
2023-05-06T03:52:58.866Z,94640.00
2023-05-06T03:53:58.880Z,94640.00
2023-05-06T03:54:58.869Z,94640.00
2023-05-06T03:55:58.898Z,94642.00
2023-05-06T03:56:58.939Z,94650.00
2023-05-06T03:57:59.012Z,94652.00
2023-05-06T03:58:59.012Z,94656.00
2023-05-06T03:59:59.051Z,94658.00
2023-05-06T04:00:59.099Z,94660.00
2023-05-06T04:01:59.155Z,94660.00
2023-05-06T04:02:59.231Z,94662.00
2023-05-06T04:03:59.244Z,94660.00
2023-05-06T04:04:59.263Z,94660.00
2023-05-06T04:05:59.295Z,94662.00
2023-05-06T04:06:59.331Z,94658.00
2023-05-06T04:07:59.397Z,94656.00
2023-05-06T04:08:59.431Z,94654.00
2023-05-06T04:09:59.460Z,94648.00
2023-05-06T04:10:59.516Z,94646.00
2023-05-06T04:11:59.545Z,94646.00
2023-05-06T04:12:59.675Z,94646.00
2023-05-06T04:13:59.647Z,94646.00
2023-05-06T04:14:59.667Z,94646.00
2023-05-06T04:15:59.754Z,94642.00
2023-05-06T04:16:59.759Z,94644.00
2023-05-06T04:17:59.848Z,94644.00
2023-05-06T04:18:59.821Z,94642.00
2023-05-06T04:19:59.877Z,94642.00
2023-05-06T04:20:59.922Z,94642.00
2023-05-06T04:21:59.975Z,94640.00
2023-05-06T04:23:00.030Z,94642.00
2023-05-06T04:24:00.060Z,94640.00
2023-05-06T04:25:00.123Z,94644.00
2023-05-06T04:26:00.186Z,94644.00
2023-05-06T04:27:00.163Z,94638.00
2023-05-06T04:28:00.223Z,94642.00
2023-05-06T04:29:00.251Z,94638.00
2023-05-06T04:30:00.289Z,94644.00
2023-05-06T04:31:00.329Z,94646.00
2023-05-06T04:32:00.446Z,94652.00
2023-05-06T04:33:00.398Z,94654.00
2023-05-06T04:34:00.419Z,94652.00
2023-05-06T04:35:00.482Z,94652.00
2023-05-06T04:36:00.491Z,94654.00
2023-05-06T04:37:00.541Z,94656.00
2023-05-06T04:38:00.605Z,94658.00
2023-05-06T04:39:00.611Z,94660.00
2023-05-06T04:40:00.664Z,94660.00
2023-05-06T04:41:00.687Z,94660.00
2023-05-06T04:42:00.781Z,94662.00
2023-05-06T04:43:00.790Z,94662.00
2023-05-06T04:44:00.813Z,94663.00
2023-05-06T04:45:00.867Z,94663.00
2023-05-06T04:46:00.926Z,94667.00
2023-05-06T04:47:00.945Z,94667.00
2023-05-06T04:48:01.034Z,94669.00
2023-05-06T04:49:01.006Z,94671.00
2023-05-06T04:50:01.054Z,94673.00
2023-05-06T04:51:01.081Z,94673.00
2023-05-06T04:52:01.136Z,94673.00
2023-05-06T04:53:01.196Z,94673.00
2023-05-06T04:54:01.197Z,94671.00
2023-05-06T04:55:01.248Z,94671.00
2023-05-06T04:56:01.285Z,94669.00
2023-05-06T04:57:01.343Z,94665.00
2023-05-06T04:58:01.458Z,94665.00
2023-05-06T04:59:01.426Z,94667.00
2023-05-06T05:00:01.463Z,94667.00
2023-05-06T05:01:01.549Z,94667.00
2023-05-06T05:02:01.615Z,94663.00
2023-05-06T05:03:01.722Z,94663.00
2023-05-06T05:04:01.633Z,94662.00
2023-05-06T05:05:01.676Z,94663.00
2023-05-06T05:06:01.730Z,94662.00
2023-05-06T05:07:01.765Z,94663.00
2023-05-06T05:08:01.842Z,94667.00
2023-05-06T05:09:01.854Z,94663.00
2023-05-06T05:10:01.909Z,94667.00
2023-05-06T05:11:01.940Z,94667.00
2023-05-06T05:12:01.975Z,94667.00
2023-05-06T05:13:02.052Z,94667.00
2023-05-06T05:14:02.573Z,94669.00
2023-05-06T05:15:02.173Z,94669.00
2023-05-06T05:16:02.159Z,94667.00
2023-05-06T05:17:02.209Z,94667.00
2023-05-06T05:18:02.239Z,94665.00
2023-05-06T05:19:03.767Z,94665.00
2023-05-06T05:20:02.252Z,94669.00
2023-05-06T05:21:02.249Z,94665.00
2023-05-06T05:22:02.287Z,94667.00
2023-05-06T05:23:02.343Z,94665.00
2023-05-06T05:24:02.335Z,94669.00
2023-05-06T05:25:02.391Z,94667.00
2023-05-06T05:26:02.399Z,94669.00
2023-05-06T05:27:02.426Z,94669.00
2023-05-06T05:28:02.456Z,94667.00
2023-05-06T05:29:02.485Z,94663.00
2023-05-06T05:30:02.667Z,94663.00
2023-05-06T05:31:02.562Z,94663.00
2023-05-06T05:32:02.564Z,94663.00
2023-05-06T05:33:02.712Z,94665.00
2023-05-06T05:34:02.623Z,94667.00
2023-05-06T05:35:02.685Z,94669.00
2023-05-06T05:36:02.742Z,94665.00
2023-05-06T05:37:02.739Z,94667.00
2023-05-06T05:38:02.813Z,94665.00
2023-05-06T05:39:02.822Z,94663.00
2023-05-06T05:40:02.881Z,94665.00
2023-05-06T05:41:02.916Z,94663.00
2023-05-06T05:42:02.947Z,94660.00
2023-05-06T05:43:02.998Z,94658.00
2023-05-06T05:44:03.007Z,94658.00
2023-05-06T05:45:03.074Z,94660.00
2023-05-06T05:46:03.153Z,94658.00
2023-05-06T05:47:03.122Z,94654.00
2023-05-06T05:48:03.254Z,94660.00
2023-05-06T05:49:03.229Z,94660.00
2023-05-06T05:50:03.295Z,94660.00
2023-05-06T05:51:03.294Z,94662.00
2023-05-06T05:52:03.353Z,94662.00
2023-05-06T05:53:03.367Z,94663.00
2023-05-06T05:54:03.400Z,94665.00
2023-05-06T05:55:03.428Z,94669.00
2023-05-06T05:56:03.405Z,94671.00
2023-05-06T05:57:03.432Z,94671.00
2023-05-06T05:58:03.473Z,94669.00
2023-05-06T05:59:03.510Z,94669.00
2023-05-06T06:00:03.544Z,94669.00
2023-05-06T06:01:03.560Z,94667.00
2023-05-06T06:02:03.706Z,94671.00
2023-05-06T06:03:03.680Z,94671.00
2023-05-06T06:04:03.901Z,94671.00
2023-05-06T06:05:03.674Z,94673.00
2023-05-06T06:06:03.697Z,94673.00
2023-05-06T06:07:03.725Z,94671.00
2023-05-06T06:08:04.093Z,94667.00
2023-05-06T06:09:03.769Z,94669.00
2023-05-06T06:10:03.816Z,94669.00
2023-05-06T06:11:03.800Z,94667.00
2023-05-06T06:12:03.833Z,94663.00
2023-05-06T06:13:03.929Z,94663.00
2023-05-06T06:14:03.901Z,94658.00
2023-05-06T06:15:03.933Z,94656.00
2023-05-06T06:16:03.958Z,94656.00
2023-05-06T06:17:03.956Z,94654.00
2023-05-06T06:18:04.339Z,94652.00
2023-05-06T06:19:04.006Z,94652.00
2023-05-06T06:20:04.061Z,94652.00
2023-05-06T06:21:04.047Z,94652.00
2023-05-06T06:22:04.084Z,94654.00
2023-05-06T06:23:04.110Z,94652.00
2023-05-06T06:24:04.142Z,94650.00
2023-05-06T06:25:04.191Z,94650.00
2023-05-06T06:26:04.193Z,94652.00
2023-05-06T06:27:04.211Z,94652.00
2023-05-06T06:28:04.237Z,94654.00
2023-05-06T06:29:04.256Z,94654.00
2023-05-06T06:30:04.317Z,94656.00
2023-05-06T06:31:04.323Z,94656.00
2023-05-06T06:32:04.368Z,94656.00
2023-05-06T06:33:04.399Z,94658.00
2023-05-06T06:34:04.393Z,94658.00
2023-05-06T06:35:04.444Z,94656.00
2023-05-06T06:36:04.458Z,94660.00
2023-05-06T06:37:05.361Z,94660.00
2023-05-06T06:38:04.482Z,94662.00
2023-05-06T06:39:04.489Z,94663.00
2023-05-06T06:40:04.534Z,94665.00
2023-05-06T06:41:04.528Z,94662.00
2023-05-06T06:42:04.567Z,94662.00
2023-05-06T06:43:04.561Z,94662.00
2023-05-06T06:44:04.590Z,94660.00
2023-05-06T06:45:04.615Z,94660.00
2023-05-06T06:46:04.625Z,94660.00
2023-05-06T06:47:04.658Z,94663.00
2023-05-06T06:48:04.678Z,94662.00
2023-05-06T06:49:04.641Z,94663.00
2023-05-06T06:50:04.712Z,94660.00
2023-05-06T06:51:04.627Z,94662.00
2023-05-06T06:52:04.641Z,94658.00
2023-05-06T06:53:06.403Z,94660.00
2023-05-06T06:54:04.678Z,94656.00
2023-05-06T06:55:04.670Z,94658.00
2023-05-06T06:56:04.627Z,94654.00
2023-05-06T06:57:04.689Z,94654.00
2023-05-06T06:58:04.693Z,94654.00
2023-05-06T06:59:04.652Z,94656.00
2023-05-06T07:00:04.659Z,94650.00
2023-05-06T07:01:04.714Z,94650.00
2023-05-06T07:02:04.697Z,94652.00
2023-05-06T07:03:04.775Z,94650.00
2023-05-06T07:04:07.049Z,94652.00
2023-05-06T07:05:04.854Z,94658.00
2023-05-06T07:06:04.919Z,94654.00
2023-05-06T07:07:04.981Z,94656.00
2023-05-06T07:08:05.035Z,94654.00
2023-05-06T07:09:05.096Z,94652.00
2023-05-06T07:10:05.171Z,94652.00
2023-05-06T07:11:05.224Z,94646.00
2023-05-06T07:12:05.275Z,94646.00
2023-05-06T07:13:05.463Z,94640.00
2023-05-06T07:14:05.388Z,94636.00
2023-05-06T07:15:05.447Z,94640.00
2023-05-06T07:16:05.485Z,94642.00
2023-05-06T07:17:05.557Z,94642.00
2023-05-06T07:18:05.704Z,94640.00
2023-05-06T07:19:05.606Z,94638.00
2023-05-06T07:20:05.651Z,94638.00
2023-05-06T07:21:05.668Z,94636.00
2023-05-06T07:22:05.756Z,94636.00
2023-05-06T07:23:05.746Z,94638.00
2023-05-06T07:24:05.742Z,94640.00
2023-05-06T07:25:05.743Z,94638.00
2023-05-06T07:26:05.769Z,94640.00
2023-05-06T07:27:05.792Z,94636.00
2023-05-06T07:28:05.835Z,94634.00
2023-05-06T07:29:05.836Z,94634.00
2023-05-06T07:30:05.877Z,94632.00
2023-05-06T07:31:05.898Z,94634.00
2023-05-06T07:32:05.926Z,94632.00
2023-05-06T07:33:06.001Z,94632.00
2023-05-06T07:34:05.949Z,94634.00
2023-05-06T07:35:05.981Z,94634.00
2023-05-06T07:36:05.986Z,94632.00
2023-05-06T07:37:06.025Z,94624.00
2023-05-06T07:38:06.138Z,94622.00
2023-05-06T07:39:06.072Z,94632.00
2023-05-06T07:40:06.070Z,94618.00
2023-05-06T07:41:06.092Z,94620.00
2023-05-06T07:42:06.114Z,94620.00
2023-05-06T07:43:06.142Z,94622.00
2023-05-06T07:44:06.156Z,94622.00
2023-05-06T07:45:06.179Z,94624.00
2023-05-06T07:46:06.250Z,94632.00
2023-05-06T07:47:06.363Z,94624.00
2023-05-06T07:48:06.263Z,94624.00
2023-05-06T07:49:06.241Z,94622.00
2023-05-06T07:50:06.266Z,94622.00
2023-05-06T07:51:06.302Z,94624.00
2023-05-06T07:52:06.332Z,94624.00
2023-05-06T07:53:06.360Z,94624.00
2023-05-06T07:54:06.427Z,94622.00
2023-05-06T07:55:06.411Z,94622.00
2023-05-06T07:56:06.423Z,94622.00
2023-05-06T07:57:06.466Z,94622.00
2023-05-06T07:58:06.484Z,94620.00
2023-05-06T07:59:06.532Z,94622.00
2023-05-06T08:00:06.561Z,94620.00
2023-05-06T08:01:06.589Z,94624.00
2023-05-06T08:02:06.666Z,94622.00
2023-05-06T08:03:06.733Z,94632.00
2023-05-06T08:04:06.847Z,94622.00
2023-05-06T08:05:06.740Z,94624.00
2023-05-06T08:06:06.758Z,94620.00
2023-05-06T08:07:06.785Z,94622.00
2023-05-06T08:08:06.802Z,94632.00
2023-05-06T08:09:06.839Z,94634.00
2023-05-06T08:10:06.981Z,94638.00
2023-05-06T08:11:06.914Z,94642.00
2023-05-06T08:12:06.949Z,94642.00
2023-05-06T08:13:07.031Z,94646.00
2023-05-06T08:14:07.012Z,94648.00
2023-05-06T08:15:07.060Z,94646.00
2023-05-06T08:16:07.119Z,94650.00
2023-05-06T08:17:07.127Z,94652.00
2023-05-06T08:18:20.795Z,94654.00
2023-05-06T08:19:08.144Z,94654.00
2023-05-06T08:20:07.178Z,94652.00
2023-05-06T08:21:07.154Z,94652.00
2023-05-06T08:22:07.132Z,94656.00
2023-05-06T08:23:07.123Z,94656.00
2023-05-06T08:24:07.111Z,94656.00
2023-05-06T08:25:07.124Z,94652.00
2023-05-06T08:26:07.089Z,94654.00
2023-05-06T08:27:07.104Z,94656.00
2023-05-06T08:28:07.075Z,94658.00
2023-05-06T08:29:07.079Z,94658.00
2023-05-06T08:30:07.059Z,94656.00
2023-05-06T08:31:07.083Z,94656.00
2023-05-06T08:32:07.205Z,94658.00
2023-05-06T08:33:07.229Z,94660.00
2023-05-06T08:34:07.212Z,94662.00
2023-05-06T08:35:07.245Z,94662.00
2023-05-06T08:36:07.313Z,94662.00
2023-05-06T08:37:07.352Z,94663.00
2023-05-06T08:38:07.412Z,94662.00
2023-05-06T08:39:07.422Z,94663.00
2023-05-06T08:40:07.493Z,94663.00
2023-05-06T08:41:07.538Z,94663.00
2023-05-06T08:42:07.617Z,94667.00
2023-05-06T08:43:07.604Z,94669.00
2023-05-06T08:44:07.661Z,94669.00
2023-05-06T08:45:07.776Z,94673.00
2023-05-06T08:46:07.849Z,94673.00
2023-05-06T08:47:07.771Z,94671.00
2023-05-06T08:48:07.806Z,94677.00
2023-05-06T08:49:07.838Z,94675.00
2023-05-06T08:50:07.866Z,94675.00
2023-05-06T08:51:07.924Z,94677.00
2023-05-06T08:52:07.938Z,94677.00
2023-05-06T08:53:08.000Z,94679.00
2023-05-06T08:54:08.046Z,94677.00
2023-05-06T08:55:08.109Z,94677.00
2023-05-06T08:56:08.112Z,94675.00
2023-05-06T08:57:10.294Z,94677.00
2023-05-06T08:58:08.125Z,94675.00
2023-05-06T08:59:08.132Z,94671.00
2023-05-06T09:00:08.120Z,94669.00
2023-05-06T09:01:08.171Z,94669.00
2023-05-06T09:02:08.137Z,94663.00
2023-05-06T09:03:08.184Z,94662.00
2023-05-06T09:04:08.090Z,94658.00
2023-05-06T09:05:08.130Z,94658.00
2023-05-06T09:06:08.126Z,94656.00
2023-05-06T09:07:08.117Z,94658.00
2023-05-06T09:08:08.078Z,94656.00
2023-05-06T09:09:08.061Z,94652.00
2023-05-06T09:10:08.193Z,94648.00
2023-05-06T09:11:08.043Z,94650.00
2023-05-06T09:12:08.054Z,94652.00
2023-05-06T09:13:08.095Z,94656.00
2023-05-06T09:14:08.149Z,94656.00
2023-05-06T09:15:08.210Z,94652.00
2023-05-06T09:16:08.027Z,94650.00
2023-05-06T09:17:08.141Z,94650.00
2023-05-06T09:18:08.058Z,94650.00
2023-05-06T09:19:08.015Z,94650.00
2023-05-06T09:20:08.003Z,94646.00
2023-05-06T09:21:07.975Z,94646.00
2023-05-06T09:22:07.978Z,94646.00
2023-05-06T09:23:07.960Z,94648.00
2023-05-06T09:24:07.969Z,94646.00
2023-05-06T09:25:08.137Z,94648.00
2023-05-06T09:26:07.937Z,94646.00
2023-05-06T09:27:10.309Z,94646.00
2023-05-06T09:28:07.977Z,94648.00
2023-05-06T09:29:07.939Z,94650.00
2023-05-06T09:30:07.953Z,94648.00
2023-05-06T09:31:07.932Z,94652.00
2023-05-06T09:32:07.911Z,94652.00
2023-05-06T09:33:07.914Z,94652.00
2023-05-06T09:34:07.888Z,94652.00
2023-05-06T09:35:08.049Z,94652.00
2023-05-06T09:36:07.889Z,94652.00
2023-05-06T09:37:07.869Z,94650.00
2023-05-06T09:38:07.895Z,94652.00
2023-05-06T09:39:07.846Z,94648.00
2023-05-06T09:40:07.873Z,94646.00
2023-05-06T09:41:07.836Z,94642.00
2023-05-06T09:42:07.827Z,94640.00
2023-05-06T09:43:07.838Z,94640.00
2023-05-06T09:44:07.817Z,94638.00
2023-05-06T09:45:07.882Z,94638.00
2023-05-06T09:46:07.964Z,94634.00
2023-05-06T09:47:07.786Z,94624.00
2023-05-06T09:48:07.819Z,94624.00
2023-05-06T09:49:07.781Z,94620.00
2023-05-06T09:50:07.860Z,94620.00
2023-05-06T09:51:07.757Z,94618.00
2023-05-06T09:52:07.814Z,94620.00
2023-05-06T09:53:07.734Z,94617.00
2023-05-06T09:54:07.763Z,94615.00
2023-05-06T09:55:07.871Z,94613.00
2023-05-06T09:56:07.733Z,94611.00
2023-05-06T09:57:07.735Z,94611.00
2023-05-06T09:58:07.720Z,94609.00
2023-05-06T09:59:07.709Z,94603.00
2023-05-06T10:00:07.735Z,94601.00
2023-05-06T10:01:07.835Z,94603.00
2023-05-06T10:02:07.786Z,94605.00
2023-05-06T10:03:07.866Z,94603.00
2023-05-06T10:04:07.788Z,94605.00
2023-05-06T10:05:07.810Z,94611.00
2023-05-06T10:06:07.658Z,94609.00
2023-05-06T10:07:07.657Z,94609.00
2023-05-06T10:08:07.656Z,94609.00
2023-05-06T10:09:07.638Z,94611.00
2023-05-06T10:10:07.627Z,94609.00
2023-05-06T10:11:07.655Z,94607.00
2023-05-06T10:12:07.638Z,94605.00
2023-05-06T10:13:07.742Z,94605.00
2023-05-06T10:14:07.716Z,94603.00
2023-05-06T10:15:07.695Z,94603.00
2023-05-06T10:16:07.816Z,94601.00
2023-05-06T10:17:07.736Z,94603.00
2023-05-06T10:18:07.968Z,94599.00
2023-05-06T10:19:07.805Z,94599.00
2023-05-06T10:20:07.812Z,94599.00
2023-05-06T10:21:07.841Z,94601.00
2023-05-06T10:22:07.891Z,94597.00
2023-05-06T10:23:07.871Z,94593.00
2023-05-06T10:24:07.886Z,94591.00
2023-05-06T10:25:08.014Z,94589.00
2023-05-06T10:26:07.964Z,94587.00
2023-05-06T10:27:07.965Z,94587.00
2023-05-06T10:28:10.831Z,94591.00
2023-05-06T10:29:08.991Z,94587.00
2023-05-06T10:30:07.970Z,94587.00
2023-05-06T10:31:07.982Z,94581.00
2023-05-06T10:32:07.974Z,94585.00
2023-05-06T10:33:08.163Z,94579.00
2023-05-06T10:34:07.938Z,94581.00
2023-05-06T10:35:08.008Z,94581.00
2023-05-06T10:36:08.016Z,94579.00
2023-05-06T10:37:07.919Z,94575.00
2023-05-06T10:38:07.891Z,94573.00
2023-05-06T10:39:07.905Z,94571.00
2023-05-06T10:40:07.879Z,94569.00
2023-05-06T10:41:07.880Z,94567.00
2023-05-06T10:42:07.889Z,94565.00
2023-05-06T10:43:07.876Z,94565.00
2023-05-06T10:44:07.853Z,94567.00
2023-05-06T10:45:07.879Z,94567.00
2023-05-06T10:46:08.024Z,94569.00
2023-05-06T10:47:07.849Z,94571.00
2023-05-06T10:48:07.873Z,94567.00
2023-05-06T10:49:07.823Z,94567.00
2023-05-06T10:50:07.873Z,94567.00
2023-05-06T10:51:07.831Z,94567.00
2023-05-06T10:52:07.869Z,94567.00
2023-05-06T10:53:07.867Z,94565.00
2023-05-06T10:54:07.885Z,94567.00
2023-05-06T10:55:07.981Z,94567.00
2023-05-06T10:56:07.937Z,94569.00
2023-05-06T10:57:07.985Z,94563.00
2023-05-06T10:58:07.964Z,94562.00
2023-05-06T10:59:08.313Z,94560.00
2023-05-06T11:00:08.009Z,94562.00
2023-05-06T11:01:08.097Z,94558.00
2023-05-06T11:02:08.100Z,94562.00
2023-05-06T11:03:08.253Z,94562.00
2023-05-06T11:04:08.108Z,94560.00
2023-05-06T11:05:08.230Z,94562.00
2023-05-06T11:06:08.126Z,94562.00
2023-05-06T11:07:08.178Z,94562.00
2023-05-06T11:08:08.183Z,94562.00
2023-05-06T11:09:08.203Z,94565.00
2023-05-06T11:10:08.342Z,94565.00
2023-05-06T11:11:08.217Z,94565.00
2023-05-06T11:12:08.237Z,94567.00
2023-05-06T11:13:08.265Z,94569.00
2023-05-06T11:14:08.303Z,94565.00
2023-05-06T11:15:08.457Z,94569.00
2023-05-06T11:16:08.314Z,94565.00
2023-05-06T11:17:08.387Z,94565.00
2023-05-06T11:18:08.430Z,94563.00
2023-05-06T11:19:08.374Z,94563.00
2023-05-06T11:20:08.667Z,94562.00
2023-05-06T11:21:08.431Z,94563.00
2023-05-06T11:22:08.491Z,94565.00
2023-05-06T11:23:08.480Z,94565.00
2023-05-06T11:24:08.468Z,94567.00
2023-05-06T11:25:08.483Z,94562.00
2023-05-06T11:26:08.531Z,94562.00
2023-05-06T11:27:08.527Z,94562.00
2023-05-06T11:28:08.559Z,94560.00
2023-05-06T11:29:08.586Z,94556.00
2023-05-06T11:30:08.737Z,94556.00
2023-05-06T11:31:08.667Z,94554.00
2023-05-06T11:32:08.652Z,94554.00
2023-05-06T11:33:08.709Z,94550.00
2023-05-06T11:34:08.693Z,94552.00
2023-05-06T11:35:08.711Z,94552.00
2023-05-06T11:36:08.735Z,94556.00
2023-05-06T11:37:08.741Z,94552.00
2023-05-06T11:38:08.876Z,94548.00
2023-05-06T11:39:08.795Z,94550.00
2023-05-06T11:40:09.027Z,94546.00
2023-05-06T11:41:08.831Z,94540.00
2023-05-06T11:42:08.842Z,94536.00
2023-05-06T11:43:08.839Z,94534.00
2023-05-06T11:44:11.385Z,94530.00
2023-05-06T11:45:08.882Z,94526.00